Impacts TAF Board INFO
FOR SITUATIONAL AWARENESS. NOT TO BE USED FOR FLIGHT PLANNING PURPOSES.
IDs:

KMIA - Miami Intl, FL, US

Issued at 1502 UTC 22 Jun 2017
Updated at 1635 UTC 22 Jun 2017
Potential Impact None Slight Moderate High
Time1553Z 22/17Z 22/18Z 22/19Z 22/20Z 22/21Z 22/22Z 22/23Z 23/00Z 23/01Z 23/02Z 23/03Z 23/04Z 23/05Z>>
Type OBS PRVL PRVL PRVL PRVL PRVL PRVL PRVL PRVL PRVL PRVL PRVL PRVL PRVL
VIS 10 >6 >6 >6 >6 >6 >6 >6 >6 >6 >6 >6 >6 >6
CIG 30 -- -- -- -- -- -- -- -- -- -- -- -- --
Cover BKN SCT SCT SCT SCT SCT SCT SCT SCT SCT SCT SCT SCT SCT
FltCat MVFR VFR VFR VFR VFR VFR VFR VFR VFR VFR VFR VFR VFR VFR
WX -- -- -- -- -- -- -- -- -- -- -- -- -- --
WDir 100 110 110 110 110 110 110 110 110 110 110 110 110 110
WSpd 14 15 15 15 15 15 15 15 15 8 8 8 8 8
WGst -- -- -- -- -- -- -- -- -- -- -- -- -- --

Raw TAF
KMIA 221502Z 2215/2312 12012KT P6SM SCT025
  FM221600 11015KT P6SM SCT250
  FM230100 11008KT P6SM SCT050


Raw METAR
KMIA 221553Z 10014KT 10SM BKN030 BKN055 BKN300 32/23 A3008 RMK AO2 SLP185 T03170228
KMIA 221453Z 12012G19KT 10SM SCT026 BKN300 31/23 A3007 RMK AO2 SLP184 T03060233 50004
KMIA 221440Z 12015G21KT 10SM SCT026 BKN039 BKN300 31/23 A3008 RMK AO2 T03060233
KMIA 221412Z 12014KT 10SM BKN026 BKN300 30/23 A3008 RMK AO2 T03000228
KMIA 221353Z 13010G19KT 10SM SCT026 BKN048 BKN300 30/23 A3008 RMK AO2 SLP185 T03000233

METAR Board
Radar Display
Forecast Discussion

FOR SITUATIONAL AWARENESS. NOT TO BE USED FOR FLIGHT PLANNING PURPOSES.

Page loaded:  16:35 UTC  |   09:35 AM Pacific  |   10:35 AM Mountain  |   11:35 AM Central  |   12:35 PM Eastern

 

ADVISORIES

FORECASTS

FORECASTS

OBSERVATIONS

USER TOOLS

ABOUT US